createdAt,value
2023-05-15T00:01:30.923Z,4.82
2023-05-15T00:03:57.723Z,4.72
2023-05-15T00:06:24.643Z,4.47
2023-05-15T00:08:51.472Z,4.82
2023-05-15T00:11:18.311Z,4.53
2023-05-15T00:13:45.130Z,5.28
2023-05-15T00:16:12.150Z,5.53
2023-05-15T00:18:39.174Z,5.32
2023-05-15T00:21:06.073Z,5.40
2023-05-15T00:23:32.907Z,5.80
2023-05-15T00:25:59.795Z,6.88
2023-05-15T00:28:26.667Z,6.07
2023-05-15T00:30:54.061Z,6.68
2023-05-15T00:33:20.943Z,6.43
2023-05-15T00:35:47.868Z,7.43
2023-05-15T00:38:14.693Z,8.00
2023-05-15T00:40:43.129Z,8.02
2023-05-15T00:43:11.713Z,8.55
2023-05-15T00:45:40.726Z,9.18
2023-05-15T00:48:10.249Z,9.05
2023-05-15T00:50:38.532Z,11.18
2023-05-15T00:53:06.189Z,10.80
2023-05-15T00:55:34.154Z,12.10
2023-05-15T00:58:02.428Z,11.65
2023-05-15T01:00:31.726Z,12.82
2023-05-15T01:02:59.406Z,13.70
2023-05-15T01:05:26.635Z,14.10
2023-05-15T01:08:08.460Z,14.05
2023-05-15T01:10:36.133Z,15.43
2023-05-15T01:13:04.034Z,15.50
2023-05-15T01:15:30.878Z,17.13
2023-05-15T01:17:57.702Z,15.70
2023-05-15T01:20:26.945Z,16.25
2023-05-15T01:23:06.258Z,18.35
2023-05-15T01:25:54.225Z,17.58
2023-05-15T01:28:43.815Z,19.48
2023-05-15T01:31:19.126Z,18.02
2023-05-15T01:33:50.974Z,18.60
2023-05-15T01:36:39.146Z,19.70
2023-05-15T01:39:07.751Z,21.30
2023-05-15T01:42:08.361Z,22.88
2023-05-15T01:44:38.376Z,22.52
2023-05-15T01:47:13.191Z,22.67
2023-05-15T01:49:42.163Z,23.48
2023-05-15T01:52:26.442Z,22.75
2023-05-15T01:54:54.713Z,25.33
2023-05-15T01:57:23.491Z,24.60
2023-05-15T01:59:51.673Z,26.27
2023-05-15T02:02:19.904Z,28.58
2023-05-15T02:04:47.706Z,26.75
2023-05-15T02:07:16.018Z,26.55
2023-05-15T02:09:43.775Z,28.88
2023-05-15T02:12:11.833Z,30.08
2023-05-15T02:14:41.095Z,27.27
2023-05-15T02:17:07.986Z,30.60
2023-05-15T02:19:35.078Z,29.65
2023-05-15T02:22:01.894Z,30.65
2023-05-15T02:24:28.754Z,31.67
2023-05-15T02:27:08.710Z,31.25
2023-05-15T02:29:53.731Z,31.88
2023-05-15T02:32:29.666Z,30.50
2023-05-15T02:35:12.763Z,32.67
2023-05-15T02:37:41.910Z,30.52
2023-05-15T02:40:12.135Z,32.85
2023-05-15T02:42:40.537Z,33.10
2023-05-15T02:45:09.676Z,33.20
2023-05-15T02:47:37.169Z,31.08
2023-05-15T02:50:05.226Z,32.63
2023-05-15T02:52:34.544Z,34.08
2023-05-15T02:55:01.708Z,32.90
2023-05-15T02:57:28.622Z,31.75
2023-05-15T02:59:57.394Z,31.83
2023-05-15T03:02:24.362Z,32.85
2023-05-15T03:04:51.332Z,32.63
2023-05-15T03:07:18.241Z,33.90
2023-05-15T03:09:45.137Z,32.40
2023-05-15T03:12:11.957Z,30.50
2023-05-15T03:14:38.729Z,32.67
2023-05-15T03:17:05.644Z,34.35
2023-05-15T03:19:32.630Z,33.72
2023-05-15T03:21:59.433Z,32.30
2023-05-15T03:24:26.250Z,30.42
2023-05-15T03:26:53.102Z,34.83
2023-05-15T03:29:20.157Z,34.80
2023-05-15T03:31:47.012Z,33.25
2023-05-15T03:34:13.875Z,31.90
2023-05-15T03:36:40.894Z,33.78
2023-05-15T03:39:07.792Z,34.65
2023-05-15T03:41:34.642Z,33.17
2023-05-15T03:44:01.500Z,34.67
2023-05-15T03:46:28.405Z,31.50
2023-05-15T03:48:56.149Z,35.58
2023-05-15T03:51:23.943Z,35.53
2023-05-15T03:53:50.859Z,34.53
2023-05-15T03:56:18.173Z,33.30
2023-05-15T03:58:45.034Z,37.15
2023-05-15T04:01:11.859Z,36.90
2023-05-15T04:03:38.772Z,36.55
2023-05-15T04:06:06.005Z,35.35
2023-05-15T04:08:32.840Z,37.92
2023-05-15T04:10:59.710Z,39.35
2023-05-15T04:13:26.622Z,37.10
2023-05-15T04:15:54.133Z,39.78
2023-05-15T04:18:21.089Z,40.47
2023-05-15T04:20:47.928Z,36.28
2023-05-15T04:23:14.742Z,39.33
2023-05-15T04:25:46.310Z,38.53
2023-05-15T04:28:13.874Z,39.42
2023-05-15T04:30:40.900Z,37.30
2023-05-15T04:33:08.233Z,35.10
2023-05-15T04:35:35.273Z,36.90
2023-05-15T04:38:02.399Z,35.38
2023-05-15T04:40:29.371Z,38.88
2023-05-15T04:42:56.469Z,42.67
2023-05-15T04:45:24.988Z,44.70
2023-05-15T04:47:52.089Z,41.28
2023-05-15T04:50:18.948Z,40.38
2023-05-15T04:52:45.828Z,41.17
2023-05-15T04:55:12.778Z,42.13
2023-05-15T04:57:39.744Z,47.05
2023-05-15T05:00:12.948Z,43.40
2023-05-15T05:02:40.319Z,47.03
2023-05-15T05:05:07.837Z,43.47
2023-05-15T05:07:35.641Z,43.03
2023-05-15T05:10:03.269Z,42.17
2023-05-15T05:12:30.128Z,45.28
2023-05-15T05:14:56.930Z,43.13
2023-05-15T05:17:24.002Z,41.03
2023-05-15T05:19:50.983Z,43.47
2023-05-15T05:22:17.831Z,40.10
2023-05-15T05:24:44.626Z,43.10
2023-05-15T05:27:11.913Z,40.70
2023-05-15T05:29:40.073Z,43.25
2023-05-15T05:32:07.853Z,44.28
2023-05-15T05:34:35.079Z,41.33
2023-05-15T05:37:01.909Z,39.65
2023-05-15T05:39:28.744Z,39.78
2023-05-15T05:41:55.956Z,44.97
2023-05-15T05:44:22.838Z,41.75
2023-05-15T05:46:49.681Z,40.40
2023-05-15T05:49:16.509Z,43.47
2023-05-15T05:51:45.208Z,42.13
2023-05-15T05:54:12.145Z,39.45
2023-05-15T05:56:39.000Z,38.70
2023-05-15T05:59:06.657Z,42.20
2023-05-15T06:01:33.601Z,42.58
2023-05-15T06:04:00.481Z,42.28
2023-05-15T06:06:27.497Z,42.90
2023-05-15T06:08:56.161Z,42.72
2023-05-15T06:11:25.277Z,43.80
2023-05-15T06:13:52.845Z,42.13
2023-05-15T06:16:19.817Z,44.15
2023-05-15T06:18:46.817Z,43.95
2023-05-15T06:21:13.661Z,44.55
2023-05-15T06:23:40.614Z,46.33
2023-05-15T06:26:07.492Z,44.88
2023-05-15T06:28:34.558Z,44.83
2023-05-15T06:31:01.515Z,41.55
2023-05-15T06:33:28.471Z,39.17
2023-05-15T06:35:55.393Z,38.13
2023-05-15T06:38:22.264Z,41.83
2023-05-15T06:40:49.179Z,40.03
2023-05-15T06:43:16.094Z,40.50
2023-05-15T06:45:42.989Z,40.40
2023-05-15T06:48:09.887Z,41.72
2023-05-15T06:50:36.801Z,42.50
2023-05-15T06:53:04.094Z,40.88
2023-05-15T06:55:31.025Z,41.70
2023-05-15T06:57:57.877Z,44.13
2023-05-15T07:00:24.706Z,40.28
2023-05-15T07:02:51.612Z,39.15
2023-05-15T07:05:18.483Z,37.72
2023-05-15T07:07:46.118Z,38.63
2023-05-15T07:10:12.980Z,36.40
2023-05-15T07:12:39.807Z,34.75
2023-05-15T07:15:07.127Z,36.20
2023-05-15T07:17:34.392Z,37.08
2023-05-15T07:20:01.449Z,37.33
2023-05-15T07:22:29.361Z,38.00
2023-05-15T07:24:56.380Z,37.63
2023-05-15T07:27:23.186Z,39.63
2023-05-15T07:29:50.170Z,39.17
2023-05-15T07:32:17.158Z,41.97
2023-05-15T07:34:44.178Z,39.20
2023-05-15T07:37:11.130Z,40.03
2023-05-15T07:39:38.145Z,42.25
2023-05-15T07:42:05.184Z,42.33
2023-05-15T07:44:32.069Z,43.55
2023-05-15T07:46:59.079Z,43.25
2023-05-15T07:49:26.078Z,43.70
2023-05-15T07:51:52.908Z,43.30
2023-05-15T07:54:19.697Z,48.67
2023-05-15T07:56:46.566Z,46.70
2023-05-15T07:59:13.475Z,48.20
2023-05-15T08:01:40.435Z,46.83
2023-05-15T08:04:09.325Z,47.15
2023-05-15T08:06:38.410Z,48.08
2023-05-15T08:09:05.463Z,48.08
2023-05-15T08:11:32.289Z,48.92
2023-05-15T08:13:59.153Z,47.13
2023-05-15T08:16:26.229Z,48.13
2023-05-15T08:18:55.897Z,46.85
2023-05-15T08:21:22.759Z,44.75
2023-05-15T08:23:50.731Z,47.17
2023-05-15T08:26:17.588Z,48.00
2023-05-15T08:28:44.561Z,44.08
2023-05-15T08:31:11.570Z,42.67
2023-05-15T08:33:38.508Z,42.67
2023-05-15T08:36:05.806Z,41.85
2023-05-15T08:38:32.718Z,41.92
2023-05-15T08:41:11.131Z,41.40
2023-05-15T08:43:39.404Z,40.70
2023-05-15T08:46:06.982Z,38.33
2023-05-15T08:48:37.488Z,36.45
2023-05-15T08:51:08.745Z,37.95
2023-05-15T08:53:35.952Z,39.55
2023-05-15T08:56:03.425Z,36.88
2023-05-15T08:58:31.107Z,36.05
2023-05-15T09:00:59.006Z,33.55
2023-05-15T09:03:26.459Z,31.73
2023-05-15T09:05:54.754Z,32.53
2023-05-15T09:08:25.843Z,28.73
2023-05-15T09:10:54.115Z,31.23
2023-05-15T09:13:20.941Z,28.88
2023-05-15T09:15:48.417Z,28.58
2023-05-15T09:18:16.764Z,29.60
2023-05-15T09:20:43.699Z,29.40
2023-05-15T09:23:27.903Z,29.05
2023-05-15T09:28:30.739Z,28.15
2023-05-15T09:31:03.034Z,29.60
2023-05-15T09:33:34.040Z,27.80
2023-05-15T09:36:02.122Z,29.88
2023-05-15T09:38:29.132Z,28.58
2023-05-15T09:41:04.138Z,28.02
2023-05-15T09:43:35.667Z,26.90
2023-05-15T09:46:02.851Z,30.73
2023-05-15T09:48:31.731Z,26.70
2023-05-15T09:50:58.789Z,27.17
2023-05-15T09:53:25.650Z,27.77
2023-05-15T09:55:53.563Z,27.65
2023-05-15T09:58:20.429Z,27.85
2023-05-15T10:00:49.668Z,27.52
2023-05-15T10:03:19.880Z,27.60
2023-05-15T10:05:46.886Z,28.75
2023-05-15T10:08:15.960Z,27.98
2023-05-15T10:10:43.739Z,26.48
2023-05-15T10:13:12.074Z,25.08
2023-05-15T10:15:43.252Z,25.20
2023-05-15T10:18:10.515Z,29.17
2023-05-15T10:20:38.869Z,25.55
2023-05-15T10:23:08.707Z,25.98
2023-05-15T10:25:46.102Z,26.77
2023-05-15T10:28:14.279Z,23.42
2023-05-15T10:30:43.100Z,24.27
2023-05-15T10:33:13.839Z,26.13
2023-05-15T10:35:40.937Z,23.70
2023-05-15T10:38:08.452Z,23.08
2023-05-15T10:40:37.925Z,18.30
2023-05-15T10:43:06.081Z,22.10
2023-05-15T10:45:34.293Z,19.30
2023-05-15T10:48:03.050Z,17.73
2023-05-15T10:50:29.995Z,16.95
2023-05-15T10:52:57.111Z,16.55
2023-05-15T10:55:24.256Z,17.52
2023-05-15T10:57:51.939Z,16.38
2023-05-15T11:00:31.396Z,17.60
2023-05-15T11:02:58.958Z,20.70
2023-05-15T11:05:30.937Z,19.20
2023-05-15T11:08:18.010Z,17.58
2023-05-15T11:10:45.235Z,18.83
2023-05-15T11:13:12.254Z,15.07
2023-05-15T11:15:44.379Z,13.23
2023-05-15T11:18:11.816Z,14.02
2023-05-15T11:20:42.654Z,12.98
2023-05-15T11:23:09.625Z,11.90
2023-05-15T11:25:37.489Z,13.65
2023-05-15T11:28:05.324Z,13.82
2023-05-15T11:30:37.902Z,14.18
2023-05-15T11:33:11.897Z,18.80
2023-05-15T11:38:09.857Z,17.38
2023-05-15T11:40:53.379Z,17.75
2023-05-15T11:43:30.891Z,18.35
2023-05-15T11:46:04.758Z,18.75
2023-05-15T11:51:04.423Z,15.90
2023-05-15T11:53:32.889Z,15.90
2023-05-15T11:55:59.783Z,16.75
2023-05-15T11:58:26.808Z,15.60
2023-05-15T12:00:54.072Z,16.38
2023-05-15T12:03:26.861Z,16.90
2023-05-15T12:05:59.092Z,16.58
2023-05-15T12:08:34.697Z,16.55
2023-05-15T12:11:02.527Z,15.40
2023-05-15T12:13:30.959Z,16.85
2023-05-15T12:15:58.742Z,16.20
2023-05-15T12:18:25.737Z,13.38
2023-05-15T12:20:53.711Z,11.43
2023-05-15T12:23:25.404Z,15.32
2023-05-15T12:25:56.959Z,13.75
2023-05-15T12:28:24.042Z,9.25
2023-05-15T12:30:51.489Z,8.70
2023-05-15T12:33:18.920Z,9.15
2023-05-15T12:35:53.663Z,8.30
2023-05-15T12:38:22.483Z,8.55
2023-05-15T12:40:53.717Z,7.65
2023-05-15T12:43:23.668Z,8.52
2023-05-15T12:45:53.462Z,8.38
2023-05-15T12:48:21.829Z,7.72
2023-05-15T12:50:50.044Z,8.15
2023-05-15T12:53:17.367Z,7.25
2023-05-15T12:55:47.609Z,9.57
2023-05-15T12:58:18.775Z,9.60
2023-05-15T13:00:50.299Z,10.48
2023-05-15T13:03:20.314Z,9.50
2023-05-15T13:05:47.478Z,7.07
2023-05-15T13:08:18.446Z,8.18
2023-05-15T13:10:46.520Z,8.75
2023-05-15T13:13:13.903Z,8.15
2023-05-15T13:15:45.350Z,6.70
2023-05-15T13:18:14.675Z,7.10
2023-05-15T13:20:44.173Z,7.63
2023-05-15T13:23:15.117Z,9.48
2023-05-15T13:25:42.850Z,9.85
2023-05-15T13:28:13.674Z,12.68
2023-05-15T13:30:44.214Z,12.02
2023-05-15T13:33:12.791Z,9.63
2023-05-15T13:35:41.365Z,10.75
2023-05-15T13:38:11.154Z,11.48
2023-05-15T13:40:38.725Z,11.77
2023-05-15T13:43:08.751Z,12.18
2023-05-15T13:45:35.845Z,12.10
2023-05-15T13:48:03.132Z,11.57
2023-05-15T13:50:30.204Z,11.63
2023-05-15T13:52:57.118Z,11.77
2023-05-15T13:55:25.785Z,12.20
2023-05-15T13:57:53.372Z,11.05
2023-05-15T14:00:21.089Z,9.73
2023-05-15T14:02:48.094Z,12.07
2023-05-15T14:05:17.035Z,13.40
2023-05-15T14:07:43.893Z,12.10
2023-05-15T14:10:11.375Z,11.77
2023-05-15T14:12:38.940Z,9.90
2023-05-15T14:15:06.629Z,10.95
2023-05-15T14:17:36.594Z,10.93
2023-05-15T14:20:05.184Z,9.43
2023-05-15T14:22:32.189Z,10.57
2023-05-15T14:24:59.050Z,11.38
2023-05-15T14:27:25.908Z,11.32
2023-05-15T14:29:52.725Z,10.13
2023-05-15T14:32:19.632Z,13.05
2023-05-15T14:34:46.644Z,12.18
2023-05-15T14:37:16.386Z,9.88
2023-05-15T14:39:43.352Z,11.35
2023-05-15T14:42:11.007Z,11.43
2023-05-15T14:44:38.015Z,12.75
2023-05-15T14:47:07.007Z,13.60
2023-05-15T14:49:34.388Z,12.68
2023-05-15T14:52:01.295Z,12.85
2023-05-15T14:54:28.459Z,14.07
2023-05-15T14:56:56.924Z,15.23
2023-05-15T14:59:25.532Z,12.27
2023-05-15T15:01:52.390Z,12.23
2023-05-15T15:04:19.340Z,11.07
2023-05-15T15:06:47.864Z,9.43
2023-05-15T15:09:15.004Z,10.18
2023-05-15T15:11:43.564Z,10.48
2023-05-15T15:14:10.599Z,12.63
2023-05-15T15:16:37.764Z,15.32
2023-05-15T15:19:04.740Z,17.98
2023-05-15T15:21:31.591Z,16.85
2023-05-15T15:23:58.498Z,18.60
2023-05-15T15:26:26.091Z,17.58
2023-05-15T15:28:52.973Z,17.63
2023-05-15T15:31:21.056Z,17.40
2023-05-15T15:33:48.484Z,18.30
2023-05-15T15:36:15.332Z,16.13
2023-05-15T15:38:43.900Z,19.02
2023-05-15T15:41:10.871Z,19.38
2023-05-15T15:43:37.684Z,22.65
2023-05-15T15:46:04.718Z,22.27
2023-05-15T15:48:31.605Z,21.95
2023-05-15T15:50:58.507Z,22.95
2023-05-15T15:53:26.454Z,21.45
2023-05-15T15:55:53.269Z,21.45
2023-05-15T15:58:20.178Z,22.15
2023-05-15T16:00:47.025Z,21.65
2023-05-15T16:03:13.933Z,21.25
2023-05-15T16:05:40.868Z,21.95
2023-05-15T16:08:07.698Z,23.02
2023-05-15T16:10:34.553Z,20.35
2023-05-15T16:13:01.342Z,19.65
2023-05-15T16:15:28.387Z,22.33
2023-05-15T16:17:55.381Z,22.80
2023-05-15T16:20:22.924Z,23.38
2023-05-15T16:22:50.017Z,21.67
2023-05-15T16:25:17.004Z,20.52
2023-05-15T16:27:43.902Z,22.27
2023-05-15T16:30:11.763Z,23.98
2023-05-15T16:32:39.658Z,23.77
2023-05-15T16:35:07.783Z,24.55
2023-05-15T16:37:34.643Z,24.13
2023-05-15T16:40:04.935Z,24.05
2023-05-15T16:42:36.429Z,20.63
2023-05-15T16:45:03.987Z,20.80
2023-05-15T16:47:30.963Z,21.20
2023-05-15T16:49:57.941Z,20.83
2023-05-15T16:52:24.974Z,21.02
2023-05-15T16:54:54.139Z,21.77
2023-05-15T17:00:58.034Z,23.15
2023-05-15T17:03:24.921Z,24.00
2023-05-15T17:05:52.105Z,22.88
2023-05-15T17:08:18.906Z,24.75
2023-05-15T17:10:45.697Z,24.38
2023-05-15T17:13:12.489Z,25.88
2023-05-15T17:15:39.356Z,22.55
2023-05-15T17:18:06.346Z,26.05
2023-05-15T17:20:33.195Z,28.75
2023-05-15T17:23:00.023Z,27.73
2023-05-15T17:25:27.133Z,32.42
2023-05-15T17:27:54.360Z,29.92
2023-05-15T17:30:21.322Z,30.38
2023-05-15T17:32:48.125Z,23.88
2023-05-15T17:35:16.221Z,22.70
2023-05-15T17:37:46.105Z,25.55
2023-05-15T17:40:24.991Z,26.75
2023-05-15T17:42:57.020Z,28.17
2023-05-15T17:45:24.782Z,27.05
2023-05-15T17:48:00.908Z,30.15
2023-05-15T17:50:28.377Z,33.88
2023-05-15T17:52:56.245Z,33.40
2023-05-15T17:55:23.666Z,34.42
2023-05-15T17:57:54.201Z,31.95
2023-05-15T18:00:22.048Z,31.25
2023-05-15T18:02:50.004Z,31.40
2023-05-15T18:05:19.523Z,31.10
2023-05-15T18:07:53.318Z,31.02
2023-05-15T18:10:21.933Z,31.02
2023-05-15T18:12:49.199Z,32.45
2023-05-15T18:15:16.331Z,28.00
2023-05-15T18:17:44.174Z,28.83
2023-05-15T18:20:17.442Z,29.38
2023-05-15T18:22:46.190Z,28.98
2023-05-15T18:25:13.297Z,26.35
2023-05-15T18:27:55.840Z,26.05
2023-05-15T18:30:28.417Z,23.80
2023-05-15T18:33:07.513Z,21.45
2023-05-15T18:35:36.052Z,20.48
2023-05-15T18:38:03.880Z,19.65
2023-05-15T18:40:30.912Z,18.38
2023-05-15T18:42:57.997Z,18.38
2023-05-15T18:45:26.925Z,19.02
2023-05-15T18:47:55.176Z,19.40
2023-05-15T18:50:24.414Z,20.05
2023-05-15T18:52:52.557Z,19.55
2023-05-15T18:55:20.964Z,17.67
2023-05-15T18:57:48.149Z,17.98
2023-05-15T19:00:23.708Z,20.17
2023-05-15T19:03:00.788Z,19.92
2023-05-15T19:05:28.047Z,19.83
2023-05-15T19:07:56.360Z,21.20
2023-05-15T19:10:23.179Z,22.70
2023-05-15T19:12:52.310Z,20.63
2023-05-15T19:15:19.864Z,22.38
2023-05-15T19:17:48.202Z,22.10
2023-05-15T19:20:15.219Z,22.85
2023-05-15T19:22:42.022Z,22.35
2023-05-15T19:25:10.953Z,22.42
2023-05-15T19:27:37.968Z,24.33
2023-05-15T19:30:07.120Z,24.63
2023-05-15T19:32:34.837Z,24.08
2023-05-15T19:35:02.063Z,23.10
2023-05-15T19:37:29.123Z,25.30
2023-05-15T19:39:56.964Z,23.60
2023-05-15T19:42:23.816Z,23.48
2023-05-15T19:44:50.686Z,22.67
2023-05-15T19:47:17.503Z,20.60
2023-05-15T19:49:44.421Z,15.32
2023-05-15T19:52:11.227Z,13.65
2023-05-15T19:54:38.047Z,13.70
2023-05-15T19:57:05.067Z,12.68
2023-05-15T19:59:31.913Z,11.35
2023-05-15T20:01:58.790Z,12.57
2023-05-15T20:04:26.140Z,11.75
2023-05-15T20:06:54.475Z,11.75
2023-05-15T20:09:21.424Z,11.13
2023-05-15T20:11:48.249Z,11.63
2023-05-15T20:14:15.438Z,11.45
2023-05-15T20:16:43.471Z,10.30
2023-05-15T20:19:11.219Z,9.45
2023-05-15T20:21:38.986Z,9.82
2023-05-15T20:24:07.042Z,9.35
2023-05-15T20:26:36.340Z,9.27
2023-05-15T20:29:03.843Z,9.02
2023-05-15T20:31:31.147Z,9.05
2023-05-15T20:33:57.948Z,7.43
2023-05-15T20:36:28.355Z,8.65
2023-05-15T20:38:55.958Z,8.80
2023-05-15T20:41:23.769Z,8.40
2023-05-15T20:43:50.658Z,8.63
2023-05-15T20:46:17.638Z,8.27
2023-05-15T20:48:44.609Z,9.60
2023-05-15T20:51:11.404Z,9.07
2023-05-15T20:53:38.165Z,9.80
2023-05-15T20:56:05.342Z,8.75
2023-05-15T20:58:32.100Z,8.30
2023-05-15T21:01:01.387Z,8.82
2023-05-15T21:03:29.454Z,9.52
2023-05-15T21:05:57.461Z,8.32
2023-05-15T21:08:24.639Z,8.48
2023-05-15T21:10:53.560Z,8.20
2023-05-15T21:13:20.615Z,8.60
2023-05-15T21:15:47.425Z,8.00
2023-05-15T21:18:14.428Z,7.53
2023-05-15T21:20:41.890Z,8.30
2023-05-15T21:23:08.823Z,6.55
2023-05-15T21:25:35.733Z,8.38
2023-05-15T21:28:02.689Z,6.85
2023-05-15T21:30:29.860Z,7.55
2023-05-15T21:32:56.714Z,6.32
2023-05-15T21:35:26.005Z,6.07
2023-05-15T21:37:52.780Z,6.13
2023-05-15T21:40:19.537Z,6.03
2023-05-15T21:42:47.877Z,5.97
2023-05-15T21:45:14.731Z,5.82
2023-05-15T21:47:41.586Z,5.60
2023-05-15T21:50:08.717Z,5.80
2023-05-15T21:52:35.487Z,5.63
2023-05-15T21:55:02.792Z,4.93
2023-05-15T21:57:29.799Z,5.18
2023-05-15T21:59:56.600Z,5.15
2023-05-15T22:02:23.730Z,5.00
2023-05-15T22:04:50.573Z,4.22
2023-05-15T22:07:17.674Z,4.18
2023-05-15T22:09:45.217Z,4.32
2023-05-15T22:12:12.120Z,4.50
2023-05-15T22:14:47.014Z,4.22
2023-05-15T22:17:26.443Z,4.45
2023-05-15T22:19:56.893Z,4.25
2023-05-15T22:22:23.688Z,4.45
2023-05-15T22:24:50.426Z,4.82
2023-05-15T22:27:18.408Z,4.65
2023-05-15T22:29:45.267Z,5.85
2023-05-15T22:32:12.042Z,5.32
2023-05-15T22:34:38.838Z,5.38
2023-05-15T22:37:06.115Z,5.70
2023-05-15T22:39:33.556Z,5.72
2023-05-15T22:42:01.961Z,6.10
2023-05-15T22:44:28.879Z,6.22
2023-05-15T22:46:56.038Z,5.90
2023-05-15T22:49:26.507Z,6.65
2023-05-15T22:51:57.470Z,6.13
2023-05-15T22:54:25.274Z,6.72
2023-05-15T22:56:52.947Z,6.50
2023-05-15T22:59:20.295Z,6.28
2023-05-15T23:01:47.889Z,6.32
2023-05-15T23:04:15.436Z,6.38
2023-05-15T23:06:42.299Z,6.40
2023-05-15T23:09:09.683Z,6.90
2023-05-15T23:11:37.919Z,5.70
2023-05-15T23:14:04.815Z,6.30
2023-05-15T23:16:31.891Z,6.82
2023-05-15T23:18:59.250Z,6.68
2023-05-15T23:21:27.593Z,6.78
2023-05-15T23:23:55.037Z,6.57
2023-05-15T23:26:22.197Z,7.10
2023-05-15T23:28:49.414Z,6.72
2023-05-15T23:31:16.284Z,6.45
2023-05-15T23:33:43.051Z,6.82
2023-05-15T23:36:09.973Z,6.35
2023-05-15T23:38:36.768Z,6.13
2023-05-15T23:41:03.814Z,6.43
2023-05-15T23:43:30.585Z,5.55
2023-05-15T23:45:57.384Z,5.90
2023-05-15T23:48:24.250Z,6.20
2023-05-15T23:50:52.663Z,5.65
2023-05-15T23:53:19.442Z,5.88
2023-05-15T23:55:47.671Z,6.65
2023-05-15T23:58:14.440Z,5.82
